createdAt,value
2022-09-22T00:00:45.496Z,6.53
2022-09-22T00:06:17.028Z,6.49
2022-09-22T00:11:48.867Z,6.45
2022-09-22T00:17:20.266Z,6.40
2022-09-22T00:22:51.725Z,6.35
2022-09-22T00:28:23.808Z,6.29
2022-09-22T00:33:55.127Z,6.23
2022-09-22T00:39:26.412Z,6.17
2022-09-22T00:44:57.862Z,6.12
2022-09-22T00:50:29.422Z,6.06
2022-09-22T00:56:00.720Z,6.01
2022-09-22T01:01:32.312Z,5.96
2022-09-22T01:07:03.462Z,5.90
2022-09-22T01:12:34.912Z,5.85
2022-09-22T01:18:06.681Z,5.81
2022-09-22T01:23:38.472Z,5.78
2022-09-22T01:29:10.184Z,5.76
2022-09-22T01:34:41.482Z,5.73
2022-09-22T01:40:13.100Z,5.71
2022-09-22T01:45:44.745Z,5.71
2022-09-22T01:51:16.309Z,5.70
2022-09-22T01:56:47.620Z,5.68
2022-09-22T02:02:18.847Z,5.65
2022-09-22T02:07:50.293Z,5.60
2022-09-22T02:13:22.098Z,5.55
2022-09-22T02:18:53.675Z,5.51
2022-09-22T02:24:25.007Z,5.45
2022-09-22T02:29:56.273Z,5.40
2022-09-22T02:35:27.548Z,5.35
2022-09-22T02:40:59.036Z,5.29
2022-09-22T02:46:31.291Z,5.23
2022-09-22T02:52:02.421Z,5.18
2022-09-22T02:57:33.992Z,5.14
2022-09-22T03:03:05.678Z,5.11
2022-09-22T03:08:36.840Z,5.08
2022-09-22T03:14:08.527Z,5.06
2022-09-22T03:19:40.230Z,5.05
2022-09-22T03:25:12.141Z,5.03
2022-09-22T03:36:13.712Z,4.97
2022-09-22T03:41:45.582Z,4.95
2022-09-22T03:47:17.772Z,4.93
2022-09-22T03:52:49.711Z,4.92
2022-09-22T03:58:21.563Z,4.89
2022-09-22T04:03:53.304Z,4.88
2022-09-22T04:09:25.253Z,4.87
2022-09-22T04:14:56.693Z,4.85
2022-09-22T04:20:28.009Z,4.84
2022-09-22T04:25:59.551Z,4.82
2022-09-22T04:31:30.997Z,4.80
2022-09-22T04:37:02.593Z,4.77
2022-09-22T04:42:34.496Z,4.73
2022-09-22T04:48:06.352Z,4.69
2022-09-22T04:53:37.711Z,4.67
2022-09-22T04:59:08.945Z,4.66
2022-09-22T05:04:40.313Z,4.65
2022-09-22T05:10:12.383Z,4.62
2022-09-22T05:15:43.858Z,4.60
2022-09-22T05:21:15.573Z,4.61
2022-09-22T05:26:46.879Z,4.64
2022-09-22T05:32:18.585Z,4.72
2022-09-22T05:37:50.081Z,5.09
2022-09-22T05:43:21.659Z,5.55
2022-09-22T05:48:53.656Z,5.81
2022-09-22T05:54:25.095Z,5.92
2022-09-22T05:59:57.021Z,6.13
2022-09-22T06:05:28.602Z,6.75
2022-09-22T06:11:00.252Z,7.62
2022-09-22T06:16:31.602Z,8.57
2022-09-22T06:22:03.014Z,9.53
2022-09-22T06:27:34.824Z,10.18
2022-09-22T06:33:06.448Z,10.73
2022-09-22T06:38:37.805Z,11.55
2022-09-22T06:49:38.926Z,13.26
2022-09-22T06:55:10.303Z,13.93
2022-09-22T07:00:41.879Z,14.44
2022-09-22T07:06:17.990Z,14.99
2022-09-22T07:11:44.690Z,15.29
2022-09-22T07:17:15.960Z,15.63
2022-09-22T07:22:47.327Z,16.18
2022-09-22T07:28:18.592Z,16.72
2022-09-22T07:33:49.953Z,17.03
2022-09-22T07:39:21.319Z,17.00
2022-09-22T07:44:53.263Z,16.92
2022-09-22T07:50:25.266Z,16.95
2022-09-22T07:55:56.555Z,17.17
2022-09-22T08:01:27.909Z,17.38
2022-09-22T08:06:59.499Z,17.42
2022-09-22T08:12:30.764Z,17.43
2022-09-22T08:18:02.142Z,17.23
2022-09-22T08:23:33.824Z,16.90
2022-09-22T08:29:05.170Z,16.69
2022-09-22T08:34:36.543Z,16.57
2022-09-22T08:40:08.487Z,16.31
2022-09-22T08:45:39.987Z,16.22
2022-09-22T08:56:41.158Z,16.06
2022-09-22T09:02:12.675Z,16.05
2022-09-22T09:18:43.150Z,15.64
2022-09-22T09:29:46.687Z,14.71
2022-09-22T09:35:18.255Z,14.47
2022-09-22T09:40:49.489Z,14.29
2022-09-22T09:46:21.012Z,14.09
2022-09-22T09:51:52.706Z,13.99
2022-09-22T09:57:31.107Z,13.91
2022-09-22T10:02:55.808Z,13.87
2022-09-22T10:08:27.155Z,13.97
2022-09-22T10:13:58.561Z,14.09
2022-09-22T10:24:59.495Z,14.25
2022-09-22T10:30:31.139Z,14.36
2022-09-22T10:36:05.453Z,14.52
2022-09-22T10:41:34.710Z,14.61
2022-09-22T10:47:06.022Z,14.65
2022-09-22T10:52:37.781Z,14.78
2022-09-22T10:58:09.585Z,14.91
2022-09-22T11:03:41.332Z,14.97
2022-09-22T11:09:13.283Z,14.98
2022-09-22T11:14:44.960Z,15.04
2022-09-22T11:20:17.316Z,15.16
2022-09-22T11:25:49.036Z,15.26
2022-09-22T11:31:20.771Z,15.33
2022-09-22T11:36:52.334Z,15.51
2022-09-22T11:42:23.980Z,15.60
2022-09-22T11:47:55.737Z,15.58
2022-09-22T11:53:27.781Z,15.68
2022-09-22T11:58:59.358Z,15.69
2022-09-22T12:04:31.023Z,15.58
2022-09-22T12:06:43.236Z,15.22
2022-09-22T12:12:14.279Z,15.40
2022-09-22T12:17:45.782Z,15.48
2022-09-22T12:23:17.015Z,15.58
2022-09-22T12:28:48.309Z,15.67
2022-09-22T12:34:19.739Z,15.91
2022-09-22T12:39:51.141Z,16.03
2022-09-22T12:45:22.422Z,16.02
2022-09-22T12:50:54.085Z,16.00
2022-09-22T12:56:25.357Z,16.00
2022-09-22T13:01:56.763Z,16.07
2022-09-22T13:07:28.254Z,16.06
2022-09-22T13:12:59.897Z,15.98
2022-09-22T13:18:31.672Z,15.98
2022-09-22T13:24:02.855Z,16.03
2022-09-22T13:29:34.200Z,16.12
2022-09-22T13:35:05.579Z,16.15
2022-09-22T13:40:37.093Z,16.13
2022-09-22T13:46:08.352Z,16.13
2022-09-22T13:51:39.733Z,16.15
2022-09-22T13:57:11.399Z,16.08
2022-09-22T14:02:42.959Z,16.02
2022-09-22T14:08:17.204Z,16.02
2022-09-22T14:13:46.394Z,16.05
2022-09-22T14:19:18.045Z,16.03
2022-09-22T14:24:49.508Z,16.10
2022-09-22T14:30:21.487Z,16.17
2022-09-22T14:35:52.712Z,16.18
2022-09-22T14:46:53.530Z,16.06
2022-09-22T14:54:46.314Z,15.54
2022-09-22T15:00:17.574Z,15.72
2022-09-22T15:05:48.722Z,15.86
2022-09-22T15:11:20.018Z,15.95
2022-09-22T15:16:51.308Z,15.95
2022-09-22T15:22:22.595Z,15.92
2022-09-22T15:27:54.052Z,15.90
2022-09-22T15:33:25.751Z,15.88
2022-09-22T15:38:57.495Z,15.87
2022-09-22T15:44:29.062Z,15.89
2022-09-22T15:50:00.497Z,15.88
2022-09-22T15:55:32.198Z,15.82
2022-09-22T16:01:04.377Z,15.76
2022-09-22T16:06:35.887Z,15.71
2022-09-22T16:12:07.915Z,15.62
2022-09-22T16:17:39.480Z,15.59
2022-09-22T16:23:11.505Z,15.53
2022-09-22T16:28:43.003Z,15.40
2022-09-22T16:34:14.203Z,15.28
2022-09-22T16:39:45.483Z,15.17
2022-09-22T16:45:16.923Z,15.10
2022-09-22T16:50:48.260Z,15.02
2022-09-22T16:56:20.031Z,14.93
2022-09-22T17:01:51.815Z,14.78
2022-09-22T17:07:23.148Z,14.61
2022-09-22T17:12:54.573Z,14.45
2022-09-22T17:18:26.151Z,14.26
2022-09-22T17:23:58.292Z,14.07
2022-09-22T17:29:29.929Z,13.90
2022-09-22T17:35:01.851Z,13.73
2022-09-22T17:40:33.547Z,13.58
2022-09-22T17:46:05.502Z,13.45
2022-09-22T17:51:37.085Z,13.32
2022-09-22T17:57:08.833Z,13.16
2022-09-22T18:02:40.454Z,13.01
2022-09-22T18:08:12.216Z,12.87
2022-09-22T18:13:43.877Z,12.71
2022-09-22T18:19:15.580Z,12.58
2022-09-22T18:24:46.779Z,12.45
2022-09-22T18:30:18.174Z,12.34
2022-09-22T18:35:49.519Z,12.23
2022-09-22T18:41:21.364Z,12.10
2022-09-22T18:46:53.105Z,11.97
2022-09-22T18:52:24.602Z,11.84
2022-09-22T18:57:56.170Z,11.71
2022-09-22T19:03:27.910Z,11.60
2022-09-22T19:08:59.401Z,11.49
2022-09-22T19:14:30.833Z,11.38
2022-09-22T19:20:02.250Z,11.26
2022-09-22T19:25:34.144Z,11.13
2022-09-22T19:31:05.822Z,10.98
2022-09-22T19:36:37.445Z,10.84
2022-09-22T19:42:09.220Z,10.69
2022-09-22T19:47:41.059Z,10.52
2022-09-22T19:53:12.593Z,10.34
2022-09-22T20:04:14.037Z,10.07
2022-09-22T20:09:45.699Z,9.97
2022-09-22T20:15:17.422Z,9.86
2022-09-22T20:20:51.070Z,9.75
2022-09-22T20:26:21.438Z,9.64
2022-09-22T20:31:53.435Z,9.55
2022-09-22T20:42:56.768Z,9.36
2022-09-22T20:54:00.120Z,9.17
2022-09-22T20:59:31.947Z,9.07
2022-09-22T21:05:04.170Z,8.97
2022-09-22T21:10:36.119Z,8.87
2022-09-22T21:16:07.764Z,8.76
2022-09-22T21:21:39.332Z,8.65
2022-09-22T21:27:10.768Z,8.53
2022-09-22T21:32:42.500Z,8.41
2022-09-22T21:38:14.250Z,8.30
2022-09-22T21:49:15.155Z,8.13
2022-09-22T21:54:47.005Z,8.04
2022-09-22T22:00:31.966Z,7.97
2022-09-22T22:05:50.415Z,7.88
2022-09-22T22:11:22.195Z,7.78
2022-09-22T22:16:53.935Z,7.72
2022-09-22T22:27:54.809Z,7.62
2022-09-22T22:33:26.703Z,7.55
2022-09-22T22:38:58.202Z,7.51
2022-09-22T22:44:30.063Z,7.49
2022-09-22T22:50:01.618Z,7.46
2022-09-22T22:55:33.588Z,7.43
2022-09-22T23:01:05.131Z,7.41
2022-09-22T23:06:36.786Z,7.38
2022-09-22T23:12:08.312Z,7.32
2022-09-22T23:17:39.968Z,7.24
2022-09-22T23:23:11.444Z,7.15
2022-09-22T23:28:43.138Z,7.06
2022-09-22T23:34:14.979Z,6.98
2022-09-22T23:39:46.798Z,6.91
2022-09-22T23:45:18.430Z,6.83
2022-09-22T23:50:50.320Z,6.74
2022-09-22T23:56:22.303Z,6.63
